Time,TemperatureF,DewpointF,PressureIn,WindDirection,WindDirectionDegrees,WindSpeedMPH,WindSpeedGustMPH,Humidity,HourlyPrecipIn,Conditions,Clouds,dailyrainin,SoftwareType,DateUTC
2013-06-10 00:00:00,74.4,58.7,29.95,SW,225,2.0,3.5,58,0.00,,,0.00,WUHU216HW,2013-06-10 04:00:00,
2013-06-10 00:01:00,74.4,58.7,29.95,SSE,158,0.0,3.5,58,0.00,,,0.00,WUHU216HW,2013-06-10 04:01:00,
2013-06-10 00:02:00,74.4,58.7,29.95,SSE,158,0.0,3.5,58,0.00,,,0.00,WUHU216HW,2013-06-10 04:02:00,
2013-06-10 00:03:00,74.4,59.2,29.95,SSE,158,0.0,2.0,59,0.00,,,0.00,WUHU216HW,2013-06-10 04:03:00,
2013-06-10 00:08:00,74.4,59.2,29.95,SE,135,1.3,2.0,59,0.00,,,0.00,WUHU216HW,2013-06-10 04:08:00,
2013-06-10 00:13:00,74.3,59.0,29.95,SE,135,0.0,1.3,59,0.00,,,0.00,WUHU216HW,2013-06-10 04:13:00,
2013-06-10 00:18:00,74.3,59.5,29.96,SSE,158,0.0,1.3,60,0.00,,,0.00,WUHU216HW,2013-06-10 04:18:00,
2013-06-10 00:23:00,74.3,59.5,29.96,ESE,113,5.5,5.5,60,0.00,,,0.00,WUHU216HW,2013-06-10 04:23:00,
2013-06-10 00:28:00,74.1,59.3,29.96,SE,135,0.0,5.5,60,0.00,,,0.00,WUHU216HW,2013-06-10 04:28:00,
2013-06-10 00:33:00,74.1,59.7,29.95,SE,135,0.0,0.0,61,0.00,,,0.00,WUHU216HW,2013-06-10 04:33:00,
2013-06-10 00:39:00,73.9,60.0,29.95,SSE,158,0.0,3.1,62,0.00,,,0.00,WUHU216HW,2013-06-10 04:39:00,
2013-06-10 00:44:00,73.7,60.3,29.95,South,180,6.2,6.2,63,0.00,,,0.00,WUHU216HW,2013-06-10 04:44:00,
2013-06-10 00:49:00,73.2,60.2,29.95,South,180,1.5,6.2,64,0.00,,,0.00,WUHU216HW,2013-06-10 04:49:00,
2013-06-10 00:54:00,72.6,60.6,29.95,SSE,158,0.8,6.2,66,0.00,,,0.00,WUHU216HW,2013-06-10 04:54:00,
2013-06-10 00:59:00,72.3,60.7,29.95,SSE,158,0.8,2.2,67,0.00,,,0.00,WUHU216HW,2013-06-10 04:59:00,
2013-06-10 01:04:00,71.7,60.6,29.95,SSE,158,0.0,0.8,68,0.00,,,0.00,WUHU216HW,2013-06-10 05:04:00,
2013-06-10 01:09:00,71.2,61.3,29.96,South,180,0.0,1.5,71,0.00,,,0.00,WUHU216HW,2013-06-10 05:09:00,
2013-06-10 01:14:00,70.7,61.1,29.96,South,180,0.8,1.5,72,0.00,,,0.00,WUHU216HW,2013-06-10 05:14:00,
2013-06-10 01:19:00,70.3,61.2,29.96,South,180,0.0,0.8,73,0.00,,,0.00,WUHU216HW,2013-06-10 05:19:00,
2013-06-10 01:24:00,69.9,61.2,29.96,SSE,158,0.0,0.0,74,0.00,,,0.00,WUHU216HW,2013-06-10 05:24:00,
2013-06-10 01:29:00,69.6,60.8,29.95,East,90,0.0,0.0,74,0.00,,,0.00,WUHU216HW,2013-06-10 05:29:00,
2013-06-10 01:34:00,69.4,61.1,29.95,SSE,158,0.0,0.0,75,0.00,,,0.00,WUHU216HW,2013-06-10 05:34:00,
2013-06-10 01:39:00,68.9,61.3,29.95,SE,135,0.0,0.0,77,0.00,,,0.00,WUHU216HW,2013-06-10 05:39:00,
2013-06-10 01:44:00,68.7,61.5,29.95,SSE,158,0.0,0.0,78,0.00,,,0.00,WUHU216HW,2013-06-10 05:44:00,
2013-06-10 01:49:00,68.5,61.4,29.95,SSE,158,0.0,0.0,78,0.00,,,0.00,WUHU216HW,2013-06-10 05:49:00,
2013-06-10 01:54:00,68.1,61.4,29.94,SE,135,0.0,0.0,79,0.00,,,0.00,WUHU216HW,2013-06-10 05:54:00,
2013-06-10 02:00:00,68.0,61.7,29.94,ESE,113,0.0,0.0,80,0.00,,,0.00,WUHU216HW,2013-06-10 06:00:00,
2013-06-10 02:05:00,67.8,61.5,29.94,ESE,113,0.0,0.0,80,0.00,,,0.00,WUHU216HW,2013-06-10 06:05:00,
2013-06-10 02:10:00,67.8,61.8,29.94,ESE,113,0.0,0.0,81,0.00,,,0.00,WUHU216HW,2013-06-10 06:10:00,
2013-06-10 02:15:00,67.8,61.8,29.93,ESE,113,0.0,0.0,81,0.00,,,0.00,WUHU216HW,2013-06-10 06:15:00,
2013-06-10 02:20:00,67.8,61.8,29.93,ESE,113,0.0,0.0,81,0.00,,,0.00,WUHU216HW,2013-06-10 06:20:00,
2013-06-10 02:25:00,67.6,61.6,29.93,East,90,0.0,0.0,81,0.00,,,0.00,WUHU216HW,2013-06-10 06:25:00,
2013-06-10 02:30:00,67.6,61.6,29.93,ESE,113,0.0,0.0,81,0.00,,,0.00,WUHU216HW,2013-06-10 06:30:00,
2013-06-10 02:35:00,67.4,61.8,29.93,ESE,113,0.0,0.0,82,0.00,,,0.00,WUHU216HW,2013-06-10 06:35:00,
2013-06-10 02:40:00,67.2,61.6,29.93,ESE,113,0.0,0.0,82,0.00,,,0.00,WUHU216HW,2013-06-10 06:40:00,
2013-06-10 02:45:00,67.2,61.6,29.93,ESE,113,0.0,0.0,82,0.00,,,0.00,WUHU216HW,2013-06-10 06:45:00,
2013-06-10 02:50:00,67.1,61.7,29.93,ESE,113,0.0,0.0,83,0.00,,,0.00,WUHU216HW,2013-06-10 06:50:00,
2013-06-10 02:55:00,66.9,61.5,29.93,ESE,113,0.0,0.0,83,0.02,,,0.02,WUHU216HW,2013-06-10 06:55:00,
2013-06-10 03:00:00,66.9,61.5,29.93,SE,135,0.0,0.0,83,0.02,,,0.02,WUHU216HW,2013-06-10 07:00:00,
2013-06-10 03:06:00,66.9,61.5,29.92,SE,135,0.0,0.0,83,0.04,,,0.05,WUHU216HW,2013-06-10 07:06:00,
2013-06-10 03:11:00,66.9,61.5,29.92,ESE,113,0.0,0.0,83,0.04,,,0.05,WUHU216HW,2013-06-10 07:11:00,
2013-06-10 03:16:00,66.9,61.5,29.91,ESE,113,0.0,0.0,83,0.04,,,0.05,WUHU216HW,2013-06-10 07:16:00,
2013-06-10 03:21:00,67.1,61.7,29.91,ESE,113,0.0,0.0,83,0.06,,,0.07,WUHU216HW,2013-06-10 07:21:00,
2013-06-10 03:26:00,67.2,61.9,29.91,ESE,113,0.0,0.0,83,0.08,,,0.07,WUHU216HW,2013-06-10 07:26:00,
2013-06-10 03:31:00,67.2,61.9,29.91,ESE,113,0.0,0.0,83,0.08,,,0.09,WUHU216HW,2013-06-10 07:31:00,
2013-06-10 03:37:00,67.2,61.6,29.90,ESE,113,0.0,0.0,82,0.08,,,0.09,WUHU216HW,2013-06-10 07:37:00,
2013-06-10 03:42:00,67.2,61.6,29.90,ESE,113,0.0,0.0,82,0.08,,,0.09,WUHU216HW,2013-06-10 07:42:00,
2013-06-10 03:47:00,67.2,61.6,29.90,ESE,113,0.0,0.0,82,0.08,,,0.09,WUHU216HW,2013-06-10 07:47:00,
2013-06-10 03:52:00,67.1,61.7,29.90,ESE,113,0.0,0.0,83,0.06,,,0.09,WUHU216HW,2013-06-10 07:52:00,
2013-06-10 03:57:00,66.9,61.5,29.90,ESE,113,0.0,0.0,83,0.06,,,0.09,WUHU216HW,2013-06-10 07:57:00,
2013-06-10 04:02:00,66.9,61.5,29.90,ESE,113,0.0,0.0,83,0.08,,,0.13,WUHU216HW,2013-06-10 08:02:00,
2013-06-10 04:07:00,66.9,61.5,29.90,ESE,113,0.0,0.0,83,0.08,,,0.13,WUHU216HW,2013-06-10 08:07:00,
2013-06-10 04:12:00,67.1,61.7,29.89,ESE,113,0.0,0.0,83,0.08,,,0.13,WUHU216HW,2013-06-10 08:12:00,
2013-06-10 04:17:00,67.1,61.7,29.89,ESE,113,0.0,0.0,83,0.06,,,0.13,WUHU216HW,2013-06-10 08:17:00,
2013-06-10 04:22:00,67.1,61.7,29.89,ESE,113,0.0,0.0,83,0.06,,,0.13,WUHU216HW,2013-06-10 08:22:00,
2013-06-10 04:27:00,67.1,61.7,29.89,ESE,113,0.0,0.0,83,0.04,,,0.13,WUHU216HW,2013-06-10 08:27:00,
2013-06-10 04:32:00,67.1,61.7,29.89,ESE,113,0.0,0.0,83,0.04,,,0.13,WUHU216HW,2013-06-10 08:32:00,
2013-06-10 04:37:00,66.9,61.5,29.88,ESE,113,0.0,0.0,83,0.04,,,0.13,WUHU216HW,2013-06-10 08:37:00,
2013-06-10 04:42:00,66.9,61.5,29.88,ESE,113,0.0,0.0,83,0.04,,,0.13,WUHU216HW,2013-06-10 08:42:00,
2013-06-10 04:47:00,66.9,61.5,29.88,ESE,113,0.0,0.0,83,0.04,,,0.13,WUHU216HW,2013-06-10 08:47:00,
2013-06-10 04:52:00,66.9,61.5,29.88,ESE,113,0.0,0.0,83,0.04,,,0.13,WUHU216HW,2013-06-10 08:52:00,
2013-06-10 04:58:00,66.9,61.5,29.88,ESE,113,0.0,0.0,83,0.00,,,0.13,WUHU216HW,2013-06-10 08:58:00,
2013-06-10 05:03:00,66.9,61.5,29.88,ESE,113,0.0,0.0,83,0.00,,,0.13,WUHU216HW,2013-06-10 09:03:00,
2013-06-10 05:08:00,66.9,61.5,29.88,ESE,113,0.0,0.0,83,0.00,,,0.13,WUHU216HW,2013-06-10 09:08:00,
2013-06-10 05:13:00,66.9,61.5,29.88,ESE,113,0.0,0.0,83,0.00,,,0.13,WUHU216HW,2013-06-10 09:13:00,
2013-06-10 05:18:00,66.9,61.5,29.87,ESE,113,0.0,0.0,83,0.00,,,0.13,WUHU216HW,2013-06-10 09:18:00,
2013-06-10 05:23:00,66.9,61.5,29.88,ESE,113,0.0,0.0,83,0.00,,,0.13,WUHU216HW,2013-06-10 09:23:00,
2013-06-10 05:28:00,66.9,61.5,29.87,ESE,113,0.0,0.0,83,0.00,,,0.13,WUHU216HW,2013-06-10 09:28:00,
2013-06-10 05:33:00,66.9,61.5,29.88,ESE,113,0.0,0.0,83,0.00,,,0.13,WUHU216HW,2013-06-10 09:33:00,
2013-06-10 05:38:00,66.9,61.9,29.88,ESE,113,0.0,0.0,84,0.00,,,0.13,WUHU216HW,2013-06-10 09:38:00,
2013-06-10 05:43:00,66.7,61.7,29.88,ESE,113,0.0,0.0,84,0.00,,,0.13,WUHU216HW,2013-06-10 09:43:00,
2013-06-10 05:48:00,66.9,61.9,29.87,ESE,113,0.0,0.0,84,0.00,,,0.13,WUHU216HW,2013-06-10 09:48:00,
2013-06-10 05:53:00,66.9,61.9,29.87,ESE,113,0.0,0.0,84,0.00,,,0.13,WUHU216HW,2013-06-10 09:53:00,
2013-06-10 05:58:00,66.9,61.9,29.87,ESE,113,0.0,0.0,84,0.00,,,0.13,WUHU216HW,2013-06-10 09:58:00,
2013-06-10 06:03:00,66.9,61.9,29.87,ESE,113,0.0,0.0,84,0.00,,,0.13,WUHU216HW,2013-06-10 10:03:00,
2013-06-10 06:08:00,66.9,61.9,29.87,ESE,113,0.0,0.0,84,0.00,,,0.13,WUHU216HW,2013-06-10 10:08:00,
2013-06-10 06:13:00,66.7,62.0,29.88,ESE,113,0.0,0.0,85,0.00,,,0.13,WUHU216HW,2013-06-10 10:13:00,
2013-06-10 06:18:00,66.7,62.0,29.87,ESE,113,0.0,0.0,85,0.00,,,0.13,WUHU216HW,2013-06-10 10:18:00,
2013-06-10 06:24:00,66.7,62.0,29.87,ESE,113,0.0,0.0,85,0.00,,,0.13,WUHU216HW,2013-06-10 10:24:00,
2013-06-10 06:29:00,66.7,62.0,29.87,ESE,113,0.0,0.0,85,0.00,,,0.13,WUHU216HW,2013-06-10 10:29:00,
2013-06-10 06:34:00,66.7,62.0,29.87,ESE,113,0.0,0.0,85,0.00,,,0.13,WUHU216HW,2013-06-10 10:34:00,
2013-06-10 06:39:00,66.7,62.0,29.87,ESE,113,0.0,0.0,85,0.00,,,0.13,WUHU216HW,2013-06-10 10:39:00,
2013-06-10 06:44:00,66.7,62.0,29.87,ESE,113,0.0,0.0,85,0.00,,,0.13,WUHU216HW,2013-06-10 10:44:00,
2013-06-10 06:49:00,66.7,62.0,29.87,ESE,113,0.0,0.0,85,0.00,,,0.13,WUHU216HW,2013-06-10 10:49:00,
2013-06-10 06:54:00,66.7,62.3,29.87,ESE,113,0.0,0.0,86,0.00,,,0.13,WUHU216HW,2013-06-10 10:54:00,
2013-06-10 06:59:00,66.7,62.3,29.87,ESE,113,0.0,0.0,86,0.00,,,0.13,WUHU216HW,2013-06-10 10:59:00,
2013-06-10 07:04:00,66.7,62.3,29.87,ESE,113,0.0,0.0,86,0.00,,,0.13,WUHU216HW,2013-06-10 11:04:00,
2013-06-10 07:09:00,66.7,62.3,29.87,ESE,113,0.0,0.0,86,0.00,,,0.13,WUHU216HW,2013-06-10 11:09:00,
2013-06-10 07:14:00,66.7,62.3,29.87,ESE,113,0.0,0.0,86,0.00,,,0.13,WUHU216HW,2013-06-10 11:14:00,
2013-06-10 07:20:00,66.9,62.5,29.87,ESE,113,0.0,0.0,86,0.00,,,0.13,WUHU216HW,2013-06-10 11:20:00,
2013-06-10 07:25:00,66.7,62.7,29.87,ESE,113,0.0,0.0,87,0.00,,,0.13,WUHU216HW,2013-06-10 11:25:00,
2013-06-10 07:30:00,66.9,62.8,29.86,ESE,113,0.0,0.0,87,0.00,,,0.13,WUHU216HW,2013-06-10 11:30:00,
2013-06-10 07:35:00,66.9,62.8,29.87,ESE,113,0.0,0.0,87,0.00,,,0.13,WUHU216HW,2013-06-10 11:35:00,
2013-06-10 07:40:00,66.9,62.8,29.87,ESE,113,0.0,0.0,87,0.00,,,0.13,WUHU216HW,2013-06-10 11:40:00,
2013-06-10 07:45:00,67.1,63.3,29.86,ESE,113,0.0,0.0,88,0.00,,,0.13,WUHU216HW,2013-06-10 11:45:00,
2013-06-10 07:50:00,67.2,63.5,29.86,ESE,113,0.0,0.0,88,0.00,,,0.13,WUHU216HW,2013-06-10 11:50:00,
2013-06-10 07:55:00,67.2,63.5,29.86,ESE,113,0.0,0.0,88,0.00,,,0.13,WUHU216HW,2013-06-10 11:55:00,
2013-06-10 08:00:00,67.2,63.5,29.87,ESE,113,0.0,0.0,88,0.00,,,0.13,WUHU216HW,2013-06-10 12:00:00,
2013-06-10 08:05:00,67.6,63.9,29.86,ESE,113,0.0,0.0,88,0.00,,,0.13,WUHU216HW,2013-06-10 12:05:00,
2013-06-10 08:10:00,67.6,63.9,29.86,ESE,113,0.0,0.0,88,0.00,,,0.13,WUHU216HW,2013-06-10 12:10:00,
2013-06-10 08:15:00,67.6,63.9,29.86,ESE,113,0.0,0.0,88,0.00,,,0.13,WUHU216HW,2013-06-10 12:15:00,
2013-06-10 08:20:00,67.8,64.1,29.86,ESE,113,0.0,0.0,88,0.00,,,0.13,WUHU216HW,2013-06-10 12:20:00,
2013-06-10 08:25:00,68.0,64.2,29.85,ESE,113,0.0,0.0,88,0.00,,,0.13,WUHU216HW,2013-06-10 12:25:00,
2013-06-10 08:30:00,68.0,64.2,29.86,ESE,113,0.0,0.8,88,0.00,,,0.13,WUHU216HW,2013-06-10 12:30:00,
2013-06-10 08:36:00,68.1,64.1,29.86,ESE,113,0.0,0.8,87,0.00,,,0.13,WUHU216HW,2013-06-10 12:36:00,
2013-06-10 08:41:00,68.1,64.1,29.86,East,90,0.0,0.0,87,0.00,,,0.13,WUHU216HW,2013-06-10 12:41:00,
2013-06-10 08:46:00,68.1,64.1,29.86,SSW,203,0.0,0.0,87,0.00,,,0.13,WUHU216HW,2013-06-10 12:46:00,
2013-06-10 08:51:00,68.3,63.9,29.87,SSW,203,2.4,2.4,86,0.00,,,0.13,WUHU216HW,2013-06-10 12:51:00,
2013-06-10 08:56:00,68.5,64.1,29.87,SSW,203,0.0,2.4,86,0.00,,,0.13,WUHU216HW,2013-06-10 12:56:00,
2013-06-10 09:01:00,68.7,64.3,29.86,SSW,203,0.0,0.0,86,0.00,,,0.13,WUHU216HW,2013-06-10 13:01:00,
2013-06-10 09:06:00,68.7,64.3,29.86,SSW,203,0.0,0.0,86,0.00,,,0.13,WUHU216HW,2013-06-10 13:06:00,
2013-06-10 09:11:00,68.9,64.1,29.86,SSW,203,0.0,0.6,85,0.00,,,0.13,WUHU216HW,2013-06-10 13:11:00,
2013-06-10 09:16:00,69.0,64.3,29.86,SSW,203,0.0,0.6,85,0.00,,,0.13,WUHU216HW,2013-06-10 13:16:00,
2013-06-10 09:21:00,69.4,64.6,29.87,SSW,203,0.0,0.0,85,0.00,,,0.13,WUHU216HW,2013-06-10 13:21:00,
2013-06-10 09:26:00,69.4,64.3,29.87,SSW,203,0.0,0.0,84,0.00,,,0.13,WUHU216HW,2013-06-10 13:26:00,
2013-06-10 09:31:00,69.4,64.0,29.87,ESE,113,0.0,0.0,83,0.00,,,0.13,WUHU216HW,2013-06-10 13:31:00,
2013-06-10 09:36:00,69.4,64.0,29.87,SSW,203,0.0,0.0,83,0.00,,,0.13,WUHU216HW,2013-06-10 13:36:00,
2013-06-10 09:42:00,69.6,64.1,29.87,SSW,203,0.0,0.0,83,0.00,,,0.13,WUHU216HW,2013-06-10 13:42:00,
2013-06-10 09:47:00,69.8,64.0,29.87,SSW,203,0.0,0.0,82,0.00,,,0.13,WUHU216HW,2013-06-10 13:47:00,
2013-06-10 09:52:00,69.6,63.8,29.87,SSW,203,0.0,0.0,82,0.00,,,0.13,WUHU216HW,2013-06-10 13:52:00,
2013-06-10 09:57:00,69.8,64.0,29.87,West,270,0.0,0.0,82,0.00,,,0.13,WUHU216HW,2013-06-10 13:57:00,
2013-06-10 10:02:00,69.6,63.8,29.87,SW,225,0.0,2.2,82,0.00,,,0.13,WUHU216HW,2013-06-10 14:02:00,
2013-06-10 10:07:00,69.4,63.6,29.87,NW,315,3.8,3.8,82,0.00,,,0.13,WUHU216HW,2013-06-10 14:07:00,
2013-06-10 10:12:00,69.4,63.6,29.87,WSW,248,0.0,3.8,82,0.00,,,0.13,WUHU216HW,2013-06-10 14:12:00,
2013-06-10 10:17:00,69.6,63.8,29.87,SW,225,0.0,3.8,82,0.00,,,0.13,WUHU216HW,2013-06-10 14:17:00,
2013-06-10 10:22:00,69.6,63.8,29.87,SW,225,6.9,6.9,82,0.00,,,0.13,WUHU216HW,2013-06-10 14:22:00,
2013-06-10 10:27:00,69.4,63.6,29.87,SW,225,6.7,6.9,82,0.00,,,0.13,WUHU216HW,2013-06-10 14:27:00,
2013-06-10 10:32:00,69.0,63.3,29.87,SW,225,2.4,6.9,82,0.00,,,0.13,WUHU216HW,2013-06-10 14:32:00,
2013-06-10 10:37:00,69.0,63.6,29.87,SSW,203,8.2,8.2,83,0.00,,,0.13,WUHU216HW,2013-06-10 14:37:00,
2013-06-10 10:42:00,69.0,63.3,29.86,SSW,203,2.2,8.2,82,0.00,,,0.13,WUHU216HW,2013-06-10 14:42:00,
2013-06-10 10:47:00,69.4,63.5,29.86,SSW,203,6.0,8.2,82,0.00,,,0.13,WUHU216HW,2013-06-10 14:47:00,
2013-06-10 10:53:00,69.6,63.8,29.86,SSW,203,2.0,6.9,82,0.00,,,0.13,WUHU216HW,2013-06-10 14:53:00,
2013-06-10 10:58:00,70.7,64.5,29.86,SSW,203,0.0,6.0,81,0.00,,,0.13,WUHU216HW,2013-06-10 14:58:00,
2013-06-10 11:03:00,71.6,64.3,29.85,SW,225,1.1,3.8,78,0.00,,,0.13,WUHU216HW,2013-06-10 15:03:00,
2013-06-10 11:08:00,72.1,64.1,29.85,SSW,203,0.0,5.1,76,0.00,,,0.13,WUHU216HW,2013-06-10 15:08:00,
2013-06-10 11:13:00,73.2,65.2,29.86,SSW,203,0.0,6.2,76,0.00,,,0.13,WUHU216HW,2013-06-10 15:13:00,
2013-06-10 11:18:00,73.9,65.1,29.86,WSW,248,4.6,6.2,74,0.00,,,0.13,WUHU216HW,2013-06-10 15:18:00,
2013-06-10 11:23:00,74.1,64.9,29.86,SW,225,4.6,4.9,73,0.00,,,0.13,WUHU216HW,2013-06-10 15:23:00,
2013-06-10 11:28:00,74.1,64.9,29.87,West,270,2.2,4.9,73,0.00,,,0.13,WUHU216HW,2013-06-10 15:28:00,
2013-06-10 11:33:00,74.1,64.9,29.87,WSW,248,1.1,4.6,73,0.00,,,0.13,WUHU216HW,2013-06-10 15:33:00,
2013-06-10 11:38:00,74.3,64.7,29.87,SW,225,4.2,4.2,72,0.00,,,0.13,WUHU216HW,2013-06-10 15:38:00,
2013-06-10 11:43:00,73.7,64.5,29.87,SW,225,4.9,5.1,73,0.00,,,0.13,WUHU216HW,2013-06-10 15:43:00,
2013-06-10 11:48:00,73.7,64.5,29.87,SSW,203,2.4,5.1,73,0.00,,,0.13,WUHU216HW,2013-06-10 15:48:00,
2013-06-10 11:53:00,73.7,64.5,29.87,SW,225,0.0,4.9,73,0.00,,,0.13,WUHU216HW,2013-06-10 15:53:00,
2013-06-10 11:58:00,73.9,64.7,29.87,SSW,203,0.0,6.9,73,0.00,,,0.13,WUHU216HW,2013-06-10 15:58:00,
2013-06-10 12:03:00,73.9,64.7,29.87,West,270,2.6,6.9,73,0.00,,,0.13,WUHU216HW,2013-06-10 16:03:00,
2013-06-10 12:09:00,74.3,65.1,29.87,NW,315,3.1,3.1,73,0.00,,,0.13,WUHU216HW,2013-06-10 16:09:00,
2013-06-10 12:14:00,74.4,64.8,29.87,SW,225,0.0,4.6,72,0.00,,,0.13,WUHU216HW,2013-06-10 16:14:00,
2013-06-10 12:19:00,74.8,64.8,29.87,SSW,203,5.1,5.1,71,0.00,,,0.13,WUHU216HW,2013-06-10 16:19:00,
2013-06-10 12:24:00,73.0,63.9,29.87,SW,225,2.4,5.1,73,0.00,,,0.13,WUHU216HW,2013-06-10 16:24:00,
2013-06-10 12:29:00,71.9,63.2,29.87,WSW,248,6.7,6.7,74,0.00,,,0.13,WUHU216HW,2013-06-10 16:29:00,
2013-06-10 12:34:00,71.2,62.8,29.87,SW,225,1.5,6.7,75,0.00,,,0.13,WUHU216HW,2013-06-10 16:34:00,
2013-06-10 12:39:00,71.2,63.2,29.87,SSW,203,3.8,5.8,76,0.00,,,0.13,WUHU216HW,2013-06-10 16:39:00,
2013-06-10 12:44:00,71.2,63.2,29.87,SW,225,1.5,3.8,76,0.00,,,0.13,WUHU216HW,2013-06-10 16:44:00,
2013-06-10 12:49:00,71.4,63.4,29.87,SSW,203,0.0,9.1,76,0.00,,,0.13,WUHU216HW,2013-06-10 16:49:00,
2013-06-10 12:54:00,71.9,63.9,29.88,SSW,203,0.0,9.1,76,0.00,,,0.13,WUHU216HW,2013-06-10 16:54:00,
2013-06-10 12:59:00,72.3,64.3,29.88,SW,225,3.3,3.3,76,0.00,,,0.13,WUHU216HW,2013-06-10 16:59:00,
2013-06-10 13:04:00,73.0,64.6,29.88,South,180,0.8,3.3,75,0.00,,,0.13,WUHU216HW,2013-06-10 17:04:00,
2013-06-10 13:09:00,72.8,64.1,29.88,West,270,0.0,5.1,74,0.00,,,0.13,WUHU216HW,2013-06-10 17:09:00,
2013-06-10 13:14:00,72.3,63.1,29.88,West,270,1.1,5.1,73,0.00,,,0.13,WUHU216HW,2013-06-10 17:14:00,
2013-06-10 13:19:00,71.4,62.8,29.88,West,270,2.4,2.4,74,0.00,,,0.13,WUHU216HW,2013-06-10 17:19:00,
2013-06-10 13:24:00,70.5,62.1,29.88,WSW,248,0.0,3.5,75,0.00,,,0.13,WUHU216HW,2013-06-10 17:24:00,
2013-06-10 13:30:00,69.8,61.8,29.87,WSW,248,1.1,3.5,76,0.00,,,0.13,WUHU216HW,2013-06-10 17:30:00,
2013-06-10 13:35:00,69.6,61.6,29.87,NNW,338,3.1,3.1,76,0.00,,,0.13,WUHU216HW,2013-06-10 17:35:00,
2013-06-10 13:40:00,69.6,62.0,29.88,SW,225,3.8,3.8,77,0.00,,,0.13,WUHU216HW,2013-06-10 17:40:00,
2013-06-10 13:45:00,69.6,62.0,29.88,SW,225,2.9,3.8,77,0.00,,,0.13,WUHU216HW,2013-06-10 17:45:00,
2013-06-10 13:50:00,69.4,62.2,29.87,SW,225,4.4,4.4,78,0.00,,,0.13,WUHU216HW,2013-06-10 17:50:00,
2013-06-10 13:55:00,69.8,62.5,29.87,West,270,0.0,4.4,78,0.00,,,0.13,WUHU216HW,2013-06-10 17:55:00,
2013-06-10 14:00:00,70.3,62.7,29.88,NW,315,0.0,4.4,77,0.00,,,0.13,WUHU216HW,2013-06-10 18:00:00,
2013-06-10 14:05:00,70.5,62.5,29.88,West,270,0.0,4.6,76,0.00,,,0.13,WUHU216HW,2013-06-10 18:05:00,
2013-06-10 14:10:00,70.1,62.1,29.88,WNW,293,3.5,4.6,76,0.00,,,0.13,WUHU216HW,2013-06-10 18:10:00,
2013-06-10 14:15:00,69.4,61.4,29.88,SSW,203,0.0,5.1,76,0.00,,,0.13,WUHU216HW,2013-06-10 18:15:00,
2013-06-10 14:20:00,69.2,61.7,29.88,NW,315,0.0,5.1,77,0.00,,,0.13,WUHU216HW,2013-06-10 18:20:00,
2013-06-10 14:25:00,69.9,62.7,29.88,NNE,23,0.0,2.2,78,0.00,,,0.13,WUHU216HW,2013-06-10 18:25:00,
2013-06-10 14:30:00,71.4,63.4,29.88,SSW,203,0.0,3.1,76,0.00,,,0.13,WUHU216HW,2013-06-10 18:30:00,
2013-06-10 14:36:00,71.9,63.9,29.88,North,0,0.0,3.1,76,0.00,,,0.13,WUHU216HW,2013-06-10 18:36:00,
2013-06-10 14:41:00,74.1,64.9,29.88,WNW,293,4.6,5.3,73,0.00,,,0.13,WUHU216HW,2013-06-10 18:41:00,
2013-06-10 14:46:00,74.4,64.4,29.88,NW,315,2.9,5.3,71,0.00,,,0.13,WUHU216HW,2013-06-10 18:46:00,
2013-06-10 14:51:00,74.8,64.8,29.88,WNW,293,0.0,4.6,71,0.00,,,0.13,WUHU216HW,2013-06-10 18:51:00,
2013-06-10 14:56:00,75.0,64.1,29.88,North,0,0.0,6.2,69,0.00,,,0.13,WUHU216HW,2013-06-10 18:56:00,
2013-06-10 15:01:00,74.8,64.4,29.88,WNW,293,0.0,6.2,70,0.00,,,0.13,WUHU216HW,2013-06-10 19:01:00,
2013-06-10 15:06:00,75.0,63.7,29.88,SW,225,6.9,6.9,68,0.00,,,0.13,WUHU216HW,2013-06-10 19:06:00,
2013-06-10 15:12:00,73.0,62.7,29.89,WSW,248,0.0,6.9,70,0.00,,,0.13,WUHU216HW,2013-06-10 19:12:00,
2013-06-10 15:17:00,71.9,62.0,29.88,NW,315,4.2,6.9,71,0.00,,,0.13,WUHU216HW,2013-06-10 19:17:00,
2013-06-10 15:22:00,71.7,62.2,29.88,WNW,293,0.0,4.6,72,0.00,,,0.13,WUHU216HW,2013-06-10 19:22:00,
2013-06-10 15:27:00,71.9,62.8,29.88,SSW,203,0.0,4.2,73,0.00,,,0.13,WUHU216HW,2013-06-10 19:27:00,
2013-06-10 15:32:00,74.3,64.7,29.89,West,270,0.0,0.8,72,0.00,,,0.13,WUHU216HW,2013-06-10 19:32:00,
2013-06-10 15:37:00,75.0,64.1,29.89,West,270,6.2,6.2,69,0.00,,,0.13,WUHU216HW,2013-06-10 19:37:00,
2013-06-10 15:42:00,75.0,63.7,29.88,NNE,23,0.0,6.2,68,0.00,,,0.13,WUHU216HW,2013-06-10 19:42:00,
2013-06-10 15:47:00,75.5,63.8,29.88,SSW,203,0.0,6.2,67,0.00,,,0.13,WUHU216HW,2013-06-10 19:47:00,
2013-06-10 15:52:00,74.8,63.1,29.89,WSW,248,1.5,1.5,67,0.00,,,0.13,WUHU216HW,2013-06-10 19:52:00,
2013-06-10 15:57:00,74.1,62.4,29.89,West,270,0.0,1.5,67,0.00,,,0.13,WUHU216HW,2013-06-10 19:57:00,
2013-06-10 16:03:00,73.5,62.4,29.89,NW,315,0.0,0.6,68,0.00,,,0.13,WUHU216HW,2013-06-10 20:03:00,
2013-06-10 16:08:00,73.5,62.8,29.89,WNW,293,0.0,0.6,69,0.00,,,0.13,WUHU216HW,2013-06-10 20:08:00,
2013-06-10 16:13:00,73.5,62.8,29.89,SSW,203,0.0,1.7,69,0.00,,,0.13,WUHU216HW,2013-06-10 20:13:00,
2013-06-10 16:18:00,73.2,62.0,29.89,SW,225,0.0,1.7,68,0.00,,,0.13,WUHU216HW,2013-06-10 20:18:00,
2013-06-10 16:23:00,72.3,61.1,29.89,SW,225,3.3,3.5,68,0.00,,,0.13,WUHU216HW,2013-06-10 20:23:00,
2013-06-10 16:28:00,71.0,60.3,29.89,WSW,248,2.4,3.5,69,0.00,,,0.13,WUHU216HW,2013-06-10 20:28:00,
2013-06-10 16:33:00,70.3,60.4,29.89,West,270,0.0,2.6,71,0.00,,,0.13,WUHU216HW,2013-06-10 20:33:00,
2013-06-10 16:38:00,69.9,60.2,29.89,NNE,23,0.0,2.4,71,0.00,,,0.13,WUHU216HW,2013-06-10 20:38:00,
2013-06-10 16:43:00,69.4,59.9,29.89,West,270,0.0,3.3,72,0.00,,,0.13,WUHU216HW,2013-06-10 20:43:00,
2013-06-10 16:48:00,69.2,60.1,29.89,NW,315,0.0,3.3,73,0.00,,,0.13,WUHU216HW,2013-06-10 20:48:00,
2013-06-10 16:53:00,69.4,60.7,29.89,NNW,338,0.0,0.0,74,0.00,,,0.13,WUHU216HW,2013-06-10 20:53:00,
2013-06-10 16:58:00,69.6,60.8,29.89,North,0,0.0,0.0,74,0.00,,,0.13,WUHU216HW,2013-06-10 20:58:00,
2013-06-10 17:03:00,70.3,61.5,29.89,NNW,338,0.0,0.0,74,0.00,,,0.13,WUHU216HW,2013-06-10 21:03:00,
2013-06-10 17:08:00,70.7,61.3,29.89,WNW,293,0.0,0.0,73,0.00,,,0.13,WUHU216HW,2013-06-10 21:08:00,
2013-06-10 17:13:00,70.8,61.7,29.89,North,0,0.0,0.0,73,0.00,,,0.13,WUHU216HW,2013-06-10 21:13:00,
2013-06-10 17:19:00,71.4,61.9,29.89,West,270,0.0,0.0,72,0.00,,,0.13,WUHU216HW,2013-06-10 21:19:00,
2013-06-10 17:24:00,70.8,61.3,29.90,West,270,2.9,2.9,72,0.00,,,0.13,WUHU216HW,2013-06-10 21:24:00,
2013-06-10 17:29:00,69.9,60.4,29.90,WSW,248,1.1,4.6,72,0.00,,,0.13,WUHU216HW,2013-06-10 21:29:00,
2013-06-10 17:34:00,68.9,60.0,29.90,WNW,293,0.0,4.6,74,0.00,,,0.13,WUHU216HW,2013-06-10 21:34:00,
2013-06-10 17:39:00,68.5,59.9,29.90,NW,315,0.0,0.0,74,0.00,,,0.13,WUHU216HW,2013-06-10 21:39:00,
2013-06-10 17:44:00,68.5,59.9,29.90,NNW,338,0.0,0.0,74,0.00,,,0.13,WUHU216HW,2013-06-10 21:44:00,
2013-06-10 17:49:00,68.3,59.7,29.90,NNW,338,0.0,0.0,74,0.00,,,0.13,WUHU216HW,2013-06-10 21:49:00,
2013-06-10 17:54:00,68.1,59.5,29.90,NNW,338,0.0,0.0,74,0.00,,,0.13,WUHU216HW,2013-06-10 21:54:00,
2013-06-10 17:59:00,67.8,59.6,29.90,West,270,0.0,0.0,75,0.00,,,0.13,WUHU216HW,2013-06-10 21:59:00,
2013-06-10 18:04:00,67.8,59.6,29.90,WNW,293,0.0,0.0,75,0.00,,,0.13,WUHU216HW,2013-06-10 22:04:00,
2013-06-10 18:09:00,67.6,59.4,29.90,West,270,1.3,1.3,75,0.00,,,0.13,WUHU216HW,2013-06-10 22:09:00,
2013-06-10 18:14:00,67.6,59.4,29.90,SW,225,0.0,1.3,75,0.00,,,0.13,WUHU216HW,2013-06-10 22:14:00,
2013-06-10 18:19:00,67.2,59.0,29.90,WNW,293,0.0,1.3,75,0.00,,,0.13,WUHU216HW,2013-06-10 22:19:00,
2013-06-10 18:25:00,67.2,59.0,29.91,NNE,23,0.0,0.0,75,0.00,,,0.13,WUHU216HW,2013-06-10 22:25:00,
2013-06-10 18:30:00,67.2,59.0,29.91,North,0,0.0,0.0,75,0.00,,,0.13,WUHU216HW,2013-06-10 22:30:00,
2013-06-10 18:35:00,67.6,59.8,29.91,North,0,0.0,0.0,76,0.00,,,0.13,WUHU216HW,2013-06-10 22:35:00,
2013-06-10 18:40:00,67.8,60.0,29.91,North,0,0.0,0.0,76,0.00,,,0.13,WUHU216HW,2013-06-10 22:40:00,
2013-06-10 18:45:00,68.1,60.3,29.91,NNW,338,0.0,0.0,76,0.00,,,0.13,WUHU216HW,2013-06-10 22:45:00,
2013-06-10 18:50:00,68.1,59.9,29.91,North,0,0.0,0.0,75,0.00,,,0.13,WUHU216HW,2013-06-10 22:50:00,
2013-06-10 18:55:00,68.1,59.9,29.91,WNW,293,0.0,0.0,75,0.00,,,0.13,WUHU216HW,2013-06-10 22:55:00,
2013-06-10 19:00:00,67.8,59.6,29.91,North,0,0.0,0.0,75,0.00,,,0.13,WUHU216HW,2013-06-10 23:00:00,
2013-06-10 19:05:00,67.8,59.6,29.91,North,0,0.0,0.0,75,0.00,,,0.13,WUHU216HW,2013-06-10 23:05:00,
2013-06-10 19:10:00,67.6,59.4,29.92,NNE,23,0.0,0.0,75,0.00,,,0.13,WUHU216HW,2013-06-10 23:10:00,
2013-06-10 19:15:00,67.4,59.2,29.92,North,0,0.0,0.0,75,0.00,,,0.13,WUHU216HW,2013-06-10 23:15:00,
2013-06-10 19:20:00,67.2,59.0,29.92,North,0,0.0,0.0,75,0.00,,,0.13,WUHU216HW,2013-06-10 23:20:00,
2013-06-10 19:25:00,67.2,59.0,29.92,North,0,0.0,0.0,75,0.00,,,0.13,WUHU216HW,2013-06-10 23:25:00,
2013-06-10 19:31:00,67.2,59.0,29.92,North,0,0.0,0.0,75,0.00,,,0.13,WUHU216HW,2013-06-10 23:31:00,
2013-06-10 19:36:00,66.9,58.7,29.92,NNW,338,0.0,0.0,75,0.00,,,0.13,WUHU216HW,2013-06-10 23:36:00,
2013-06-10 19:41:00,66.7,58.5,29.92,North,0,0.0,0.0,75,0.00,,,0.13,WUHU216HW,2013-06-10 23:41:00,
2013-06-10 19:46:00,66.5,58.3,29.92,NNW,338,0.0,0.0,75,0.00,,,0.13,WUHU216HW,2013-06-10 23:46:00,
2013-06-10 19:51:00,66.3,58.5,29.92,NNW,338,0.0,0.0,76,0.00,,,0.13,WUHU216HW,2013-06-10 23:51:00,
2013-06-10 19:56:00,66.2,58.3,29.92,North,0,0.0,0.8,76,0.00,,,0.13,WUHU216HW,2013-06-10 23:56:00,
2013-06-10 20:01:00,66.0,58.2,29.92,North,0,0.0,0.8,76,0.00,,,0.13,WUHU216HW,2013-06-11 00:01:00,
2013-06-10 20:06:00,65.4,58.0,29.93,WNW,293,0.0,0.0,77,0.00,,,0.13,WUHU216HW,2013-06-11 00:06:00,
2013-06-10 20:11:00,65.3,57.8,29.93,NW,315,0.0,0.0,77,0.00,,,0.13,WUHU216HW,2013-06-11 00:11:00,
2013-06-10 20:17:00,64.9,57.5,29.93,North,0,0.0,0.0,77,0.00,,,0.13,WUHU216HW,2013-06-11 00:17:00,
2013-06-10 20:22:00,64.7,57.7,29.93,North,0,0.0,0.0,78,0.00,,,0.13,WUHU216HW,2013-06-11 00:22:00,
2013-06-10 20:27:00,64.7,57.7,29.93,NNW,338,0.0,0.0,78,0.00,,,0.13,WUHU216HW,2013-06-11 00:27:00,
2013-06-10 20:32:00,64.4,57.7,29.93,West,270,0.0,0.0,79,0.00,,,0.13,WUHU216HW,2013-06-11 00:32:00,
2013-06-10 20:37:00,64.2,57.5,29.93,NNW,338,0.0,0.0,79,0.00,,,0.13,WUHU216HW,2013-06-11 00:37:00,
2013-06-10 20:42:00,64.2,57.5,29.93,NNW,338,0.0,0.0,79,0.00,,,0.13,WUHU216HW,2013-06-11 00:42:00,
2013-06-10 20:47:00,64.2,57.5,29.93,NW,315,0.0,0.0,79,0.00,,,0.13,WUHU216HW,2013-06-11 00:47:00,
2013-06-10 20:52:00,64.0,57.3,29.93,NW,315,0.0,0.0,79,0.00,,,0.13,WUHU216HW,2013-06-11 00:52:00,
2013-06-10 20:57:00,64.0,57.3,29.93,NW,315,0.0,0.0,79,0.00,,,0.13,WUHU216HW,2013-06-11 00:57:00,
2013-06-10 21:02:00,64.0,57.3,29.92,NW,315,0.0,0.0,79,0.00,,,0.13,WUHU216HW,2013-06-11 01:02:00,
2013-06-10 21:07:00,64.0,57.7,29.92,NW,315,0.0,0.0,80,0.00,,,0.13,WUHU216HW,2013-06-11 01:07:00,
2013-06-10 21:12:00,63.6,57.3,29.93,WNW,293,0.0,0.0,80,0.00,,,0.13,WUHU216HW,2013-06-11 01:12:00,
2013-06-10 21:18:00,63.3,57.0,29.93,West,270,0.0,0.0,80,0.00,,,0.13,WUHU216HW,2013-06-11 01:18:00,
2013-06-10 21:23:00,63.1,57.1,29.93,WNW,293,0.0,0.0,81,0.00,,,0.13,WUHU216HW,2013-06-11 01:23:00,
2013-06-10 21:28:00,63.1,57.1,29.93,WNW,293,0.0,0.0,81,0.00,,,0.13,WUHU216HW,2013-06-11 01:28:00,
2013-06-10 21:33:00,63.1,57.1,29.93,NW,315,0.0,0.0,81,0.00,,,0.13,WUHU216HW,2013-06-11 01:33:00,
2013-06-10 21:38:00,62.9,57.1,29.93,NW,315,0.0,0.0,81,0.00,,,0.13,WUHU216HW,2013-06-11 01:38:00,
2013-06-10 21:43:00,62.7,56.8,29.94,WNW,293,0.0,0.0,81,0.00,,,0.13,WUHU216HW,2013-06-11 01:43:00,
2013-06-10 21:48:00,62.7,56.8,29.94,WNW,293,0.0,0.0,81,0.00,,,0.13,WUHU216HW,2013-06-11 01:48:00,
2013-06-10 21:53:00,62.4,56.8,29.94,NW,315,0.0,0.0,82,0.00,,,0.13,WUHU216HW,2013-06-11 01:53:00,
2013-06-10 21:58:00,62.4,56.8,29.93,WNW,293,0.0,0.0,82,0.00,,,0.13,WUHU216HW,2013-06-11 01:58:00,
2013-06-10 22:03:00,62.2,56.6,29.94,WNW,293,0.0,0.0,82,0.00,,,0.13,WUHU216HW,2013-06-11 02:03:00,
2013-06-10 22:09:00,61.7,56.1,29.94,West,270,0.0,0.0,82,0.00,,,0.13,WUHU216HW,2013-06-11 02:09:00,
2013-06-10 22:14:00,61.5,56.3,29.94,WSW,248,0.0,0.0,83,0.00,,,0.13,WUHU216HW,2013-06-11 02:14:00,
2013-06-10 22:19:00,61.3,56.4,29.94,SW,225,0.0,0.0,84,0.00,,,0.13,WUHU216HW,2013-06-11 02:19:00,
2013-06-10 22:24:00,61.3,56.4,29.95,WSW,248,0.0,0.0,84,0.00,,,0.13,WUHU216HW,2013-06-11 02:24:00,
2013-06-10 22:29:00,61.1,56.6,29.95,SW,225,0.0,0.0,85,0.00,,,0.13,WUHU216HW,2013-06-11 02:29:00,
2013-06-10 22:34:00,60.9,56.4,29.95,SW,225,0.0,0.0,85,0.00,,,0.13,WUHU216HW,2013-06-11 02:34:00,
2013-06-10 22:39:00,60.9,56.4,29.95,SW,225,0.0,0.0,85,0.00,,,0.13,WUHU216HW,2013-06-11 02:39:00,
2013-06-10 22:44:00,60.6,56.4,29.95,SSW,203,0.0,0.0,86,0.00,,,0.13,WUHU216HW,2013-06-11 02:44:00,
2013-06-10 22:49:00,60.6,56.4,29.95,SSW,203,0.0,0.0,86,0.00,,,0.13,WUHU216HW,2013-06-11 02:49:00,
2013-06-10 22:54:00,60.8,56.6,29.96,WNW,293,0.0,0.0,86,0.00,,,0.13,WUHU216HW,2013-06-11 02:54:00,
2013-06-10 22:59:00,60.9,56.7,29.95,WNW,293,0.0,0.0,86,0.00,,,0.13,WUHU216HW,2013-06-11 02:59:00,
2013-06-10 23:04:00,60.9,56.7,29.96,West,270,0.0,0.0,86,0.00,,,0.13,WUHU216HW,2013-06-11 03:04:00,
2013-06-10 23:09:00,60.9,56.7,29.96,West,270,0.0,0.0,86,0.00,,,0.13,WUHU216HW,2013-06-11 03:09:00,
2013-06-10 23:14:00,61.1,56.9,29.96,WNW,293,0.0,0.0,86,0.00,,,0.13,WUHU216HW,2013-06-11 03:14:00,
2013-06-10 23:19:00,61.3,57.1,29.96,West,270,0.8,0.8,86,0.00,,,0.13,WUHU216HW,2013-06-11 03:19:00,
2013-06-10 23:24:00,61.3,57.1,29.96,WSW,248,0.0,0.8,86,0.00,,,0.13,WUHU216HW,2013-06-11 03:24:00,
2013-06-10 23:30:00,60.9,56.7,29.96,WSW,248,0.0,0.0,86,0.00,,,0.13,WUHU216HW,2013-06-11 03:30:00,
2013-06-10 23:35:00,60.9,56.7,29.96,WSW,248,0.0,0.0,86,0.00,,,0.13,WUHU216HW,2013-06-11 03:35:00,
2013-06-10 23:40:00,60.8,56.6,29.96,WSW,248,0.0,0.0,86,0.00,,,0.13,WUHU216HW,2013-06-11 03:40:00,
2013-06-10 23:45:00,60.8,56.6,29.96,West,270,0.0,0.0,86,0.00,,,0.13,WUHU216HW,2013-06-11 03:45:00,
2013-06-10 23:50:00,60.6,56.4,29.96,WSW,248,0.0,0.0,86,0.00,,,0.13,WUHU216HW,2013-06-11 03:50:00,
2013-06-10 23:55:00,60.6,56.7,29.96,West,270,0.0,0.0,87,0.00,,,0.13,WUHU216HW,2013-06-11 03:55:00,